createdAt,value
2023-03-07T00:02:04.575Z,0.40
2023-03-07T00:07:09.970Z,0.50
2023-03-07T00:12:14.112Z,0.93
2023-03-07T00:17:18.206Z,0.52
2023-03-07T00:22:24.415Z,0.50
2023-03-07T00:27:28.590Z,0.50
2023-03-07T00:32:33.342Z,0.40
2023-03-07T00:37:38.794Z,0.35
2023-03-07T00:42:42.789Z,0.52
2023-03-07T00:47:47.222Z,0.63
2023-03-07T00:52:52.671Z,0.63
2023-03-07T00:57:57.836Z,0.65
2023-03-07T01:03:04.305Z,1.27
2023-03-07T01:08:11.715Z,1.10
2023-03-07T01:13:18.211Z,1.40
2023-03-07T01:18:23.029Z,1.48
2023-03-07T01:23:31.631Z,1.75
2023-03-07T01:29:14.157Z,2.00
2023-03-07T01:34:51.661Z,2.40
2023-03-07T01:40:31.538Z,2.13
2023-03-07T01:46:44.937Z,2.72
2023-03-07T01:52:34.719Z,3.35
2023-03-07T01:57:50.864Z,3.22
2023-03-07T02:03:05.824Z,3.33
2023-03-07T02:08:27.535Z,3.15
2023-03-07T02:13:33.912Z,2.90
2023-03-07T02:18:46.320Z,2.42
2023-03-07T02:23:59.219Z,2.60
2023-03-07T02:29:05.380Z,2.05
2023-03-07T02:34:22.510Z,2.10
2023-03-07T02:39:31.001Z,2.10
2023-03-07T02:44:38.997Z,1.98
2023-03-07T02:49:43.180Z,2.00
2023-03-07T02:54:48.124Z,2.10
2023-03-07T02:59:53.753Z,1.88
2023-03-07T03:04:58.183Z,1.85
2023-03-07T03:10:02.332Z,2.22
2023-03-07T03:15:12.538Z,2.30
2023-03-07T03:20:17.283Z,1.85
2023-03-07T03:25:23.253Z,1.95
2023-03-07T03:30:32.376Z,1.48
2023-03-07T03:35:40.989Z,1.35
2023-03-07T03:40:45.649Z,1.45
2023-03-07T03:45:57.877Z,1.40
2023-03-07T03:51:06.760Z,1.40
2023-03-07T03:56:13.554Z,1.55
2023-03-07T04:01:23.423Z,1.35
2023-03-07T04:06:30.397Z,1.25
2023-03-07T04:11:35.516Z,1.80
2023-03-07T04:16:41.025Z,1.80
2023-03-07T04:21:45.501Z,1.52
2023-03-07T04:26:52.762Z,1.50
2023-03-07T04:31:58.691Z,1.30
2023-03-07T04:37:02.950Z,2.00
2023-03-07T04:42:07.505Z,1.50
2023-03-07T04:47:15.116Z,1.50
2023-03-07T04:52:20.500Z,1.70
2023-03-07T04:57:24.868Z,1.60
2023-03-07T05:02:30.308Z,1.30
2023-03-07T05:07:35.044Z,1.63
2023-03-07T05:13:46.888Z,1.83
2023-03-07T05:18:56.005Z,2.45
2023-03-07T05:24:00.583Z,1.42
2023-03-07T05:29:05.660Z,1.40
2023-03-07T05:34:11.299Z,1.70
2023-03-07T05:39:16.612Z,2.22
2023-03-07T05:44:21.037Z,2.33
2023-03-07T05:49:26.657Z,2.42
2023-03-07T05:54:31.104Z,1.95
2023-03-07T05:59:35.329Z,1.80
2023-03-07T06:04:40.943Z,1.73
2023-03-07T06:09:45.087Z,1.80
2023-03-07T06:14:50.978Z,1.95
2023-03-07T06:19:57.147Z,2.20
2023-03-07T06:25:01.505Z,1.77
2023-03-07T06:30:08.842Z,2.83
2023-03-07T06:35:14.585Z,2.50
2023-03-07T06:40:19.724Z,2.45
2023-03-07T06:45:23.872Z,2.45
2023-03-07T06:50:35.093Z,2.08
2023-03-07T06:55:41.109Z,2.45
2023-03-07T07:00:48.174Z,2.80
2023-03-07T07:05:53.970Z,2.88
2023-03-07T07:10:59.879Z,2.10
2023-03-07T07:16:06.946Z,2.90
2023-03-07T07:21:14.311Z,2.60
2023-03-07T07:26:18.368Z,2.78
2023-03-07T07:31:23.194Z,2.88
2023-03-07T07:36:29.158Z,3.10
2023-03-07T07:41:33.679Z,2.92
2023-03-07T07:46:38.062Z,2.88
2023-03-07T07:51:45.849Z,2.00
2023-03-07T07:56:50.093Z,2.05
2023-03-07T08:01:54.881Z,2.67
2023-03-07T08:07:00.320Z,2.22
2023-03-07T08:12:04.726Z,2.55
2023-03-07T08:17:08.821Z,3.50
2023-03-07T08:22:14.204Z,3.47
2023-03-07T08:27:18.245Z,3.20
2023-03-07T08:32:22.398Z,3.00
2023-03-07T08:37:27.742Z,3.90
2023-03-07T08:42:32.136Z,3.97
2023-03-07T08:47:36.260Z,5.53
2023-03-07T08:52:43.862Z,6.45
2023-03-07T08:57:47.871Z,6.55
2023-03-07T09:02:51.851Z,4.88
2023-03-07T09:07:58.982Z,5.13
2023-03-07T09:13:03.313Z,4.82
2023-03-07T09:18:07.514Z,5.10
2023-03-07T09:23:13.041Z,5.03
2023-03-07T09:28:17.114Z,4.32
2023-03-07T09:33:21.433Z,4.78
2023-03-07T09:38:26.922Z,5.15
2023-03-07T09:43:48.944Z,3.72
2023-03-07T09:49:35.622Z,4.05
2023-03-07T09:54:45.800Z,4.10
2023-03-07T09:59:53.926Z,4.35
2023-03-07T10:05:06.188Z,4.07
2023-03-07T10:10:20.619Z,3.63
2023-03-07T10:15:45.590Z,3.40
2023-03-07T10:20:54.144Z,3.38
2023-03-07T10:26:11.688Z,3.33
2023-03-07T10:31:20.103Z,3.10
2023-03-07T10:36:34.448Z,3.88
2023-03-07T10:41:39.932Z,3.55
2023-03-07T10:46:55.238Z,4.28
2023-03-07T10:52:05.968Z,4.50
2023-03-07T10:57:16.233Z,5.55
2023-03-07T11:02:36.149Z,5.85
2023-03-07T11:07:40.315Z,6.78
2023-03-07T11:12:47.806Z,7.15
2023-03-07T11:17:52.989Z,6.82
2023-03-07T11:23:19.295Z,7.10
2023-03-07T11:28:31.906Z,6.72
2023-03-07T11:33:59.033Z,5.93
2023-03-07T11:39:13.916Z,5.60
2023-03-07T11:44:34.772Z,5.53
2023-03-07T11:49:46.591Z,5.63
2023-03-07T11:55:05.312Z,5.50
2023-03-07T12:00:30.341Z,4.65
2023-03-07T12:05:55.519Z,4.45
2023-03-07T12:11:20.573Z,5.38
2023-03-07T12:16:40.162Z,6.43
2023-03-07T12:22:30.055Z,6.95
2023-03-07T12:27:37.917Z,6.65
2023-03-07T12:32:43.513Z,5.13
2023-03-07T12:37:53.315Z,4.13
2023-03-07T12:43:03.354Z,4.13
2023-03-07T12:48:20.266Z,3.50
2023-03-07T12:58:43.210Z,2.40
2023-03-07T13:03:58.039Z,2.50
2023-03-07T13:09:04.073Z,2.47
2023-03-07T13:14:08.135Z,2.23
2023-03-07T13:20:05.932Z,2.00
2023-03-07T13:25:49.125Z,1.33
2023-03-07T13:31:42.701Z,1.80
2023-03-07T13:36:48.150Z,1.60
2023-03-07T13:41:52.685Z,1.10
2023-03-07T13:47:01.370Z,0.98
2023-03-07T13:52:40.645Z,0.80
2023-03-07T13:57:44.901Z,0.70
2023-03-07T14:02:49.996Z,0.70
2023-03-07T14:07:55.649Z,0.50
2023-03-07T14:13:44.845Z,0.52
2023-03-07T14:19:05.495Z,0.68
2023-03-07T14:24:36.005Z,0.40
2023-03-07T14:29:51.971Z,0.77
2023-03-07T14:34:56.934Z,0.80
2023-03-07T14:40:23.623Z,0.60
2023-03-07T14:45:37.788Z,1.08
2023-03-07T14:50:45.036Z,1.00
2023-03-07T14:55:53.968Z,0.60
2023-03-07T15:01:03.346Z,0.77
2023-03-07T15:06:16.329Z,1.35
2023-03-07T15:11:33.013Z,1.27
2023-03-07T15:16:39.911Z,2.30
2023-03-07T15:26:54.070Z,2.25
2023-03-07T15:32:00.403Z,2.17
2023-03-07T15:37:25.070Z,2.60
2023-03-07T15:42:31.201Z,2.80
2023-03-07T15:47:36.131Z,3.10
2023-03-07T15:52:41.859Z,3.10
2023-03-07T15:57:54.607Z,2.45
2023-03-07T16:03:25.461Z,1.73
2023-03-07T16:08:29.993Z,1.73
2023-03-07T16:13:42.161Z,1.67
2023-03-07T16:18:46.392Z,1.20
2023-03-07T16:23:50.858Z,1.35
2023-03-07T16:28:56.553Z,1.00
2023-03-07T16:34:01.778Z,1.13
2023-03-07T16:39:06.013Z,1.10
2023-03-07T16:44:17.293Z,1.73
2023-03-07T16:49:23.070Z,1.80
2023-03-07T16:54:27.158Z,3.45
2023-03-07T16:59:43.972Z,4.35
2023-03-07T17:04:49.383Z,3.70
2023-03-07T17:09:53.817Z,3.08
2023-03-07T17:15:00.962Z,3.05
2023-03-07T17:20:08.308Z,2.97
2023-03-07T17:25:12.594Z,3.63
2023-03-07T17:30:22.506Z,2.63
2023-03-07T17:35:28.158Z,2.65
2023-03-07T17:40:32.171Z,3.30
2023-03-07T17:45:40.340Z,2.55
2023-03-07T17:50:44.581Z,3.17
2023-03-07T17:55:48.713Z,2.40
2023-03-07T18:00:54.414Z,2.47
2023-03-07T18:05:59.314Z,2.30
2023-03-07T18:11:05.751Z,3.20
2023-03-07T18:16:12.038Z,2.60
2023-03-07T18:21:22.111Z,2.57
2023-03-07T18:26:26.516Z,3.08
2023-03-07T18:31:31.943Z,2.67
2023-03-07T18:36:36.130Z,2.92
2023-03-07T18:41:40.393Z,3.33
2023-03-07T18:46:46.280Z,3.30
2023-03-07T18:51:50.512Z,2.57
2023-03-07T18:56:54.735Z,3.20
2023-03-07T19:02:03.055Z,2.92
2023-03-07T19:07:07.476Z,2.80
2023-03-07T19:12:11.580Z,2.70
2023-03-07T19:17:17.203Z,2.13
2023-03-07T19:22:25.875Z,2.83
2023-03-07T19:27:32.280Z,2.90
2023-03-07T19:32:40.953Z,2.20
2023-03-07T19:37:45.101Z,2.67
2023-03-07T19:42:49.393Z,2.50
2023-03-07T19:47:54.882Z,2.90
2023-03-07T19:52:59.229Z,2.28
2023-03-07T19:58:03.280Z,3.20
2023-03-07T20:03:19.513Z,3.05
2023-03-07T20:08:23.636Z,2.72
2023-03-07T20:13:27.916Z,3.63
2023-03-07T20:18:33.422Z,2.53
2023-03-07T20:23:38.274Z,2.97
2023-03-07T20:28:42.499Z,2.58
2023-03-07T20:33:48.696Z,2.55
2023-03-07T20:38:54.922Z,2.72
2023-03-07T20:44:01.145Z,3.28
2023-03-07T20:49:07.292Z,2.43
2023-03-07T20:54:15.327Z,2.07
2023-03-07T20:59:21.053Z,2.70
2023-03-07T21:04:26.525Z,2.78
2023-03-07T21:09:30.574Z,2.25
2023-03-07T21:14:34.685Z,2.70
2023-03-07T21:19:40.321Z,2.53
2023-03-07T21:24:44.461Z,2.78
2023-03-07T21:29:48.486Z,2.65
2023-03-07T21:34:54.000Z,2.17
2023-03-07T21:39:58.098Z,2.08
2023-03-07T21:45:02.308Z,2.60
2023-03-07T21:50:09.031Z,2.53
2023-03-07T21:55:13.613Z,2.60
2023-03-07T22:00:19.561Z,3.35
2023-03-07T22:05:25.133Z,3.20
2023-03-07T22:10:29.240Z,3.55
2023-03-07T22:15:33.318Z,3.40
2023-03-07T22:20:43.398Z,2.95
2023-03-07T22:25:47.531Z,3.47
2023-03-07T22:30:51.995Z,3.28
2023-03-07T22:36:02.853Z,3.35
2023-03-07T22:41:09.552Z,3.40
2023-03-07T22:46:14.560Z,3.75
2023-03-07T22:51:20.229Z,3.97
2023-03-07T22:56:26.681Z,4.50
2023-03-07T23:01:30.957Z,3.28
2023-03-07T23:06:37.829Z,5.07
2023-03-07T23:16:47.645Z,5.20
2023-03-07T23:21:53.015Z,5.05
2023-03-07T23:26:57.047Z,6.07
2023-03-07T23:32:03.677Z,5.95
2023-03-07T23:37:09.215Z,6.68
2023-03-07T23:42:13.908Z,7.57
2023-03-07T23:47:18.098Z,6.15
2023-03-07T23:52:23.475Z,7.72
2023-03-07T23:57:27.494Z,8.00
